Flight Track Log - Related Links

Times and Time Zones

All times are in EDT time to prevent confusion due to time zone crossing. See the EJA848 flight status page for this flight to view local times or setup timezone preferences in your user account.

Time Position Orientation Groundspeed Altitude Reporting Facility
EDT Latitude Longitude Course Direction KTS MPH feet Rate Location/Type
Wed 08:09:26 PM 40.8267 -74.1167 259° West 178 205 1,500  Level New York Center
Wed 08:10:20 PM 40.8167 -74.1833 259° West 191 220 1,800 1,000 Climbing New York TRACON
Wed 08:11:26 PM 40.7833 -74.2500 237° Southwest 228 262 3,500 1,600 Climbing New York TRACON
Wed 08:12:20 PM 40.7667 -74.3333 255° West 258 297 5,000 2,684 Climbing New York TRACON
Wed 08:13:20 PM 40.7000 -74.3500 191° South 266 306 8,600 2,806 Climbing New York TRACON
Wed 08:15:26 PM 40.5358 -74.3047 168° South 311 358 13,700 2,452 Climbing New York Center
Wed 08:16:26 PM 40.4306 -74.2719 167° South 342 394 16,200 2,250 Climbing New York Center
Wed 08:17:26 PM 40.3417 -74.2428 166° South 367 422 18,200 1,850 Climbing New York Center
Wed 08:18:26 PM 40.2617 -74.1300 133° Southeast 372 428 19,900 1,700 Climbing New York Center
Wed 08:19:26 PM 40.2197 -73.9894 111° Southeast 367 422 21,600 1,500 Climbing New York Center
Wed 08:20:26 PM 40.1436 -73.8744 131° Southeast 398 458 22,900 800 Climbing New York Center
Wed 08:21:26 PM 40.0706 -73.8033 143° Southeast 403 464 23,200 1,100 Climbing New York Center
Wed 08:22:26 PM 39.9544 -73.6956 145° Southeast 420 483 25,100 1,700 Climbing New York Center
Wed 08:23:26 PM 39.8586 -73.6047 144° Southeast 426 490 26,600 1,550 Climbing New York Center
Wed 08:24:26 PM 39.7669 -73.5200 145° Southeast 426 490 28,200 1,200 Climbing New York Center
Wed 08:25:26 PM 39.6894 -73.4469 144° Southeast 421 484 29,000 1,150 Climbing New York Center
Wed 08:26:26 PM 39.5853 -73.3542 146° Southeast 421 484 30,500 1,650 Climbing New York Center
Wed 08:27:26 PM 39.4811 -73.2561 144° Southeast 421 484 32,300 1,450 Climbing New York Center
Wed 08:28:26 PM 39.3869 -73.1667 144° Southeast 421 484 33,400 1,150 Climbing New York Center
Wed 08:29:26 PM 39.2950 -73.0778 143° Southeast 421 484 34,600 800 Climbing New York Center
Wed 08:30:26 PM 39.1967 -72.9942 147° Southeast 421 484 35,000 200 Climbing New York Center
Wed 08:31:26 PM 39.0942 -72.8947 143° Southeast 433 498 35,000  Level New York Center
Wed 08:32:26 PM 38.9917 -72.8008 145° Southeast 452 520 35,000  Level New York Center
Wed 08:33:26 PM 38.8847 -72.7044 145° Southeast 458 527 35,000  Level New York Center
Wed 08:34:26 PM 38.7800 -72.6108 145° Southeast 464 534 35,000  Level New York Center
Wed 08:35:26 PM 38.6731 -72.5122 144° Southeast 464 534 35,000  Level New York Center
Wed 08:36:26 PM 38.5681 -72.4169 145° Southeast 464 534 35,000  Level New York Center
Wed 08:37:26 PM 38.4653 -72.3217 144° Southeast 464 534 35,000  Level New York Center
Wed 08:38:26 PM 38.3600 -72.2239 144° Southeast 463 533 35,000 200 Level New York Center
Wed 08:39:26 PM 38.2567 -72.1453 149° Southeast 463 533 35,400 600 Climbing New York Center
Wed 08:40:26 PM 38.1558 -72.0428 141° Southeast 458 527 36,200 750 Climbing New York Center
Wed 08:41:26 PM 38.0544 -71.9567 146° Southeast 453 521 36,900 400 Climbing New York Center
Wed 08:42:26 PM 37.9489 -71.8706 147° Southeast 453 521 37,000 50 Climbing New York Center
Wed 08:43:26 PM 37.8497 -71.7744 143° Southeast 447 514 37,000  Level New York Center
Wed 08:44:26 PM 37.7503 -71.6889 146° Southeast 447 514 37,000  Level New York Center
Wed 08:45:26 PM 37.6489 -71.5983 145° Southeast 441 507 37,000  Level New York Center
Wed 08:46:26 PM 37.5494 -71.5108 145° Southeast 441 507 37,000  Level New York Center
Wed 08:47:26 PM 37.4475 -71.4364 150° Southeast 441 507 37,000  Level New York Center
Wed 08:48:26 PM 37.3497 -71.3886 159° South 424 488 37,000  Level New York Center
Wed 08:49:26 PM 37.2292 -71.3067 152° Southeast 433 498 37,000  Level New York Center
Wed 08:51:00 PM 37.0692 -71.1971 153° Southeast  Level FlightAware Approximate
Wed 08:58:00 PM 36.3238 -70.7692 155° Southeast  Level FlightAware Approximate
Wed 08:59:00 PM 36.2178 -70.7068 155° Southeast  Level FlightAware Approximate
Wed 09:00:00 PM 36.1119 -70.6445 155° Southeast  Level FlightAware Approximate
Wed 09:01:00 PM 36.0059 -70.5825 155° Southeast  Level FlightAware Approximate
Wed 09:02:00 PM 35.8999 -70.5206 155° Southeast  Level FlightAware Approximate
Wed 09:03:00 PM 35.7938 -70.4588 155° Southeast  Level FlightAware Approximate
Wed 09:03:16 PM 35.7667 -70.4500 168° South 429 494 37,000  Level New York Oceanic (ODAPS)
Wed 09:04:00 PM 35.6827 -70.4158 168° South  Level FlightAware Approximate
Wed 09:05:00 PM 35.5680 -70.3860 168° South  Level FlightAware Approximate
Wed 09:06:00 PM 35.4532 -70.3562 168° South  Level FlightAware Approximate
Wed 09:07:00 PM 35.3385 -70.3266 168° South  Level FlightAware Approximate
Wed 09:08:00 PM 35.2237 -70.2970 168° South  Level FlightAware Approximate
Wed 09:09:00 PM 34.9448 -70.2347 168° South 429 494 37,000  Level FlightAware Transoceanic
Wed 09:10:00 PM 34.8274 -70.2043 168° South 429 494 37,000  Level FlightAware Transoceanic
Wed 09:11:00 PM 34.7099 -70.1740 168° South 429 494 37,000  Level FlightAware Transoceanic
Wed 09:12:00 PM 34.5925 -70.1437 168° South 429 494 37,000  Level FlightAware Transoceanic
Wed 09:13:00 PM 34.4750 -70.1136 168° South 429 494 37,000  Level FlightAware Transoceanic
Wed 09:14:00 PM 34.3575 -70.0835 168° South 429 494 37,000  Level FlightAware Transoceanic
Wed 09:15:00 PM 34.2401 -70.0535 168° South 429 494 37,000  Level FlightAware Transoceanic
Wed 09:16:00 PM 34.1226 -70.0236 168° South 429 494 37,000  Level FlightAware Transoceanic
Wed 09:17:00 PM 34.0051 -69.9938 168° South 429 494 37,000  Level FlightAware Transoceanic
Wed 09:18:00 PM 33.8876 -69.9641 168° South 429 494 37,000  Level FlightAware Transoceanic
Wed 09:19:00 PM 33.7701 -69.9344 168° South 429 494 37,000  Level FlightAware Transoceanic
Wed 09:20:00 PM 33.6526 -69.9049 168° South 429 494 37,000  Level FlightAware Transoceanic
Wed 09:21:00 PM 33.5351 -69.8754 168° South 429 494 37,000  Level FlightAware Transoceanic
Wed 09:22:00 PM 33.4175 -69.8460 168° South 429 494 37,000  Level FlightAware Transoceanic
Wed 09:23:00 PM 33.3000 -69.8167 168° South 429 494 37,000  Level FlightAware Transoceanic
Wed 09:24:00 PM 33.1801 -69.7868 168° South 429 494 37,000  Level FlightAware Transoceanic
Wed 09:24:24 PM 33.3000 -69.8167 168° South 419 482 37,000  Level New York Oceanic (ODAPS)
Wed 09:25:00 PM 33.0601 -69.7569 168° South 429 494 37,000  Level FlightAware Transoceanic
Wed 09:26:00 PM 32.9402 -69.7272 168° South 429 494 37,000  Level FlightAware Transoceanic
Wed 09:27:00 PM 32.8202 -69.6975 168° South 429 494 37,000  Level FlightAware Transoceanic
Wed 09:28:00 PM 32.7002 -69.6679 168° South 429 494 37,000  Level FlightAware Transoceanic
Wed 09:29:00 PM 32.5803 -69.6384 168° South 429 494 37,000  Level FlightAware Transoceanic
Wed 09:30:00 PM 32.5003 -69.6188 168° South 419 482 37,000  Level FlightAware Transoceanic
Wed 09:31:00 PM 32.3860 -69.5908 168° South 419 482 37,000  Level FlightAware Transoceanic
Wed 09:32:00 PM 32.2718 -69.5629 168° South 419 482 37,000  Level FlightAware Transoceanic
Wed 09:33:00 PM 32.1575 -69.5351 168° South 419 482 37,000  Level FlightAware Transoceanic
Wed 09:34:00 PM 32.0432 -69.5073 168° South 419 482 37,000  Level FlightAware Transoceanic
Wed 09:35:00 PM 31.9289 -69.4796 168° South 419 482 37,000  Level FlightAware Transoceanic
Wed 09:36:00 PM 31.8146 -69.4520 168° South 419 482 37,000  Level FlightAware Transoceanic
Wed 09:37:00 PM 31.7003 -69.4244 168° South 419 482 37,000  Level FlightAware Transoceanic
Wed 09:38:00 PM 31.5860 -69.3969 168° South 419 482 37,000  Level FlightAware Transoceanic
Wed 09:39:00 PM 31.4717 -69.3695 168° South 419 482 37,000  Level FlightAware Transoceanic
Wed 09:40:00 PM 31.3573 -69.3421 168° South 419 482 37,000  Level FlightAware Transoceanic
Wed 09:41:00 PM 31.2430 -69.3148 168° South 419 482 37,000  Level FlightAware Transoceanic
Wed 09:42:00 PM 31.1287 -69.2876 168° South 419 482 37,000  Level FlightAware Transoceanic
Wed 09:43:00 PM 31.0144 -69.2604 169° South 419 482 37,000  Level FlightAware Transoceanic
Wed 09:44:00 PM 30.9000 -69.2333 168° South 419 482 37,000  Level FlightAware Transoceanic
Wed 09:44:55 PM 30.9000 -69.2333 168° South 451 519 37,000  Level New York Oceanic (ODAPS)
Wed 09:45:00 PM 30.7841 -69.2057 168° South 419 482 37,000  Level FlightAware Transoceanic
Wed 09:46:00 PM 30.6683 -69.1781 168° South 419 482 37,000  Level FlightAware Transoceanic
Wed 09:47:00 PM 30.5524 -69.1507 168° South 419 482 37,000  Level FlightAware Transoceanic
Wed 09:48:00 PM 30.4366 -69.1232 168° South 419 482 37,000  Level FlightAware Transoceanic
Wed 09:49:00 PM 30.3207 -69.0959 168° South 419 482 37,000  Level FlightAware Transoceanic
Wed 09:50:00 PM 30.2048 -69.0686 169° South 419 482 37,000  Level FlightAware Transoceanic
Wed 09:51:00 PM 30.0787 -69.0389 169° South 451 519 37,000  Level FlightAware Transoceanic
Wed 09:51:06 PM 30.9000 -69.2333 168° South 451 519 37,000  Level New York Oceanic (ODAPS)
Wed 09:52:00 PM 29.9613 -69.0114 169° South 451 519 37,000  Level FlightAware Transoceanic
Wed 09:53:00 PM 29.8440 -68.9840 169° South 451 519 37,000  Level FlightAware Transoceanic
Wed 09:54:00 PM 29.7266 -68.9566 169° South 451 519 37,000  Level FlightAware Transoceanic
Wed 09:55:00 PM 29.6092 -68.9293 169° South 451 519 37,000  Level FlightAware Transoceanic
Wed 09:56:00 PM 29.4918 -68.9020 169° South 451 519 37,000  Level FlightAware Transoceanic
Wed 09:57:00 PM 29.3745 -68.8749 169° South 451 519 37,000  Level FlightAware Transoceanic
Wed 09:58:00 PM 29.2571 -68.8477 169° South 451 519 37,000  Level FlightAware Transoceanic
Wed 09:59:00 PM 29.1397 -68.8207 169° South 451 519 37,000  Level FlightAware Transoceanic
Wed 10:00:00 PM 29.0223 -68.7937 169° South 451 519 37,000  Level FlightAware Transoceanic
Wed 10:01:00 PM 28.9049 -68.7667 169° South 451 519 37,000  Level FlightAware Transoceanic
Wed 10:02:00 PM 28.7875 -68.7399 169° South 451 519 37,000  Level FlightAware Transoceanic
Wed 10:03:00 PM 28.6700 -68.7131 169° South 451 519 37,000  Level FlightAware Transoceanic
Wed 10:04:00 PM 28.5526 -68.6863 169° South 451 519 37,000  Level FlightAware Transoceanic
Wed 10:05:00 PM 28.4352 -68.6596 169° South 451 519 37,000  Level FlightAware Transoceanic
Wed 10:06:00 PM 28.3178 -68.6329 169° South 451 519 37,000  Level FlightAware Transoceanic
Wed 10:07:00 PM 28.2003 -68.6064 169° South 451 519 37,000  Level FlightAware Transoceanic
Wed 10:08:00 PM 28.0829 -68.5798 169° South 451 519 37,000  Level FlightAware Transoceanic
Wed 10:09:00 PM 27.9654 -68.5534 169° South 451 519 37,000  Level FlightAware Transoceanic
Wed 10:09:55 PM 27.9333 -68.5333 169° South 429 494 37,000  Level New York Oceanic (ODAPS)
Wed 10:10:00 PM 27.8480 -68.5270 169° South 451 519 37,000  Level FlightAware Transoceanic
Wed 10:11:00 PM 27.7305 -68.5006 169° South 451 519 37,000  Level FlightAware Transoceanic
Wed 10:12:00 PM 27.6131 -68.4743 169° South 451 519 37,000  Level FlightAware Transoceanic
Wed 10:13:00 PM 27.4956 -68.4481 169° South 451 519 37,000  Level FlightAware Transoceanic
Wed 10:14:00 PM 27.3781 -68.4219 169° South 451 519 37,000  Level FlightAware Transoceanic
Wed 10:15:00 PM 27.2607 -68.3958 169° South 451 519 37,000  Level FlightAware Transoceanic
Wed 10:16:00 PM 27.1152 -68.3524 169° South 429 494 37,000  Level FlightAware Transoceanic
Wed 10:17:00 PM 26.9983 -68.3268 169° South 429 494 37,000  Level FlightAware Transoceanic
Wed 10:18:00 PM 26.8814 -68.3013 169° South 429 494 37,000  Level FlightAware Transoceanic
Wed 10:19:00 PM 26.7645 -68.2757 169° South 429 494 37,000  Level FlightAware Transoceanic
Wed 10:20:00 PM 26.6476 -68.2503 169° South 429 494 37,000  Level FlightAware Transoceanic
Wed 10:21:00 PM 26.5307 -68.2249 169° South 429 494 37,000  Level FlightAware Transoceanic
Wed 10:22:00 PM 26.4138 -68.1995 169° South 429 494 37,000  Level FlightAware Transoceanic
Wed 10:23:00 PM 26.2969 -68.1742 169° South 429 494 37,000  Level FlightAware Transoceanic
Wed 10:24:00 PM 26.1799 -68.1489 169° South 429 494 37,000  Level FlightAware Transoceanic
Wed 10:25:00 PM 26.0630 -68.1237 169° South 429 494 37,000  Level FlightAware Transoceanic
Wed 10:26:00 PM 25.9461 -68.0986 169° South 429 494 37,000  Level FlightAware Transoceanic
Wed 10:27:00 PM 25.8291 -68.0735 169° South 429 494 37,000  Level FlightAware Transoceanic
Wed 10:28:00 PM 25.7122 -68.0484 169° South 429 494 37,000  Level FlightAware Transoceanic
Wed 10:29:00 PM 25.5952 -68.0234 169° South 429 494 37,000  Level FlightAware Transoceanic
Wed 10:30:00 PM 25.4783 -67.9984 169° South 429 494 37,000  Level FlightAware Transoceanic
Wed 10:31:00 PM 25.3613 -67.9735 169° South 429 494 37,000  Level FlightAware Transoceanic
Wed 10:31:34 PM 25.4667 -68.0000 169° South 408 470 37,000  Level New York Oceanic (ODAPS)
Wed 10:32:00 PM 25.2444 -67.9487 169° South 429 494 37,000  Level FlightAware Transoceanic
Wed 10:33:00 PM 25.1274 -67.9239 169° South 429 494 37,000  Level FlightAware Transoceanic
Wed 10:34:00 PM 25.0104 -67.8991 169° South 429 494 37,000  Level FlightAware Transoceanic
Wed 10:35:00 PM 24.8934 -67.8744 169° South 429 494 37,000  Level FlightAware Transoceanic
Wed 10:36:00 PM 24.7765 -67.8497 169° South 429 494 37,000  Level FlightAware Transoceanic
Wed 10:37:00 PM 24.6744 -67.8314 169° South 408 470 37,000  Level FlightAware Transoceanic
Wed 10:38:00 PM 24.5612 -67.8075 169° South 408 470 37,000  Level FlightAware Transoceanic
Wed 10:39:00 PM 24.4480 -67.7836 169° South 408 470 37,000  Level FlightAware Transoceanic
Wed 10:40:00 PM 24.3347 -67.7598 169° South 408 470 37,000  Level FlightAware Transoceanic
Wed 10:41:00 PM 24.2215 -67.7360 169° South 408 470 37,000  Level FlightAware Transoceanic
Wed 10:42:00 PM 24.1083 -67.7122 169° South 408 470 37,000  Level FlightAware Transoceanic
Wed 10:43:00 PM 23.9951 -67.6885 169° South 408 470 37,000  Level FlightAware Transoceanic
Wed 10:44:00 PM 23.8819 -67.6649 169° South 408 470 37,000  Level FlightAware Transoceanic
Wed 10:45:00 PM 23.7686 -67.6413 169° South 408 470 37,000  Level FlightAware Transoceanic
Wed 10:46:00 PM 23.6554 -67.6177 169° South 408 470 37,000  Level FlightAware Transoceanic
Wed 10:47:00 PM 23.5422 -67.5941 169° South 408 470 37,000  Level FlightAware Transoceanic
Wed 10:48:00 PM 23.4289 -67.5706 169° South 408 470 37,000  Level FlightAware Transoceanic
Wed 10:48:59 PM 23.4500 -67.5667 169° South 410 472 37,000  Level San Juan Center
Wed 10:49:00 PM 23.3157 -67.5472 169° South 408 470 37,000  Level FlightAware Transoceanic
Wed 10:49:59 PM 23.3333 -67.5500 173° South 410 472 37,000  Level San Juan Center
Wed 10:50:00 PM 23.2024 -67.5238 169° South 408 470 37,000  Level FlightAware Transoceanic
Wed 10:50:59 PM 23.2333 -67.5167 163° South 400 460 37,000  Level San Juan Center
Wed 10:51:00 PM 23.0892 -67.5004 169° South 408 470 37,000  Level FlightAware Transoceanic
Wed 10:52:00 PM 22.9760 -67.4771 169° South 408 470 37,000  Level FlightAware Transoceanic
Wed 10:52:00 PM 23.1167 -67.5000 173° South 410 472 37,000  Level San Juan Center
Wed 10:53:00 PM 22.8627 -67.4538 169° South 408 470 37,000  Level FlightAware Transoceanic
Wed 10:53:00 PM 23.0000 -67.4833 173° South 410 472 37,000  Level San Juan Center
Wed 10:54:00 PM 22.7494 -67.4305 169° South 408 470 37,000  Level FlightAware Transoceanic
Wed 10:54:00 PM 22.8833 -67.4500 165° South 400 460 37,000  Level San Juan Center
Wed 10:55:00 PM 22.7833 -67.4333 171° South 410 472 37,000  Level San Juan Center
Wed 10:56:00 PM 22.6667 -67.4000 165° South 400 460 37,000  Level San Juan Center
Wed 10:57:00 PM 22.5667 -67.3833 171° South 400 460 37,000  Level San Juan Center
Wed 10:58:01 PM 22.4500 -67.3667 172° South 400 460 37,000  Level San Juan Center
Wed 10:59:01 PM 22.3333 -67.3333 165° South 410 472 37,000  Level San Juan Center
Wed 11:00:01 PM 22.2333 -67.3167 171° South 420 483 37,000  Level San Juan Center
Wed 11:01:01 PM 22.1167 -67.3000 172° South 420 483 37,000  Level San Juan Center
Wed 11:01:17 PM 22.2333 -67.3167 170° South 369 425 37,000  Level New York Oceanic (ODAPS)
Wed 11:02:01 PM 22.0000 -67.2667 170° South 420 483 37,000  Level San Juan Center
Wed 11:03:01 PM 21.8833 -67.2500 172° South 420 483 37,000  Level San Juan Center
Wed 11:04:01 PM 21.7667 -67.2167 165° South 430 495 37,000  Level San Juan Center
Wed 11:05:02 PM 21.6500 -67.2000 172° South 420 483 37,000  Level San Juan Center
Wed 11:06:02 PM 21.5333 -67.1833 172° South 420 483 37,000  Level San Juan Center
Wed 11:07:02 PM 21.4333 -67.1667 171° South 410 472 37,000  Level San Juan Center
Wed 11:08:02 PM 21.3167 -67.1333 165° South 410 472 37,000  Level San Juan Center
Wed 11:09:02 PM 21.2000 -67.1167 172° South 400 460 37,000  Level San Juan Center
Wed 11:10:02 PM 21.1000 -67.0667 155° Southeast 410 472 37,000  Level San Juan Center
Wed 11:11:03 PM 20.9833 -67.0333 165° South 410 472 37,000  Level San Juan Center
Wed 11:12:03 PM 20.8500 -67.0000 167° South 410 472 37,000  Level San Juan Center
Wed 11:13:03 PM 20.7500 -66.9500 155° Southeast 420 483 37,000  Level San Juan Center
Wed 11:14:03 PM 20.6333 -66.9167 165° South 420 483 37,000 -50 Level San Juan Center
Wed 11:15:03 PM 20.5167 -66.8833 165° South 420 483 36,900 -950 Descending San Juan Center
Wed 11:16:03 PM 20.4167 -66.8500 163° South 420 483 35,100 -1,750 Descending San Juan Center
Wed 11:17:03 PM 20.3000 -66.8000 158° South 430 495 33,400 -1,850 Descending San Juan Center
Wed 11:18:03 PM 20.1833 -66.7667 165° South 440 506 31,400 -2,000 Descending San Juan Center
Wed 11:19:03 PM 20.0667 -66.7333 165° South 450 518 29,400 -2,000 Descending San Juan Center
Wed 11:20:03 PM 19.9500 -66.6833 158° South 440 506 27,400 -1,983 Descending San Juan Center
Wed 11:21:04 PM 19.8333 -66.6500 165° South 440 506 25,400 -1,884 Descending San Juan Center
Wed 11:22:04 PM 19.7167 -66.6167 165° South 440 506 23,600 -1,850 Descending San Juan Center
Wed 11:23:04 PM 19.6000 -66.5833 165° South 430 495 21,700 -1,950 Descending San Juan Center
Wed 11:24:04 PM 19.4833 -66.5333 158° South 420 483 19,700 -1,950 Descending San Juan Center
Wed 11:25:04 PM 19.3667 -66.5000 165° South 410 472 17,800 -1,800 Descending San Juan Center
Wed 11:26:04 PM 19.2667 -66.4667 163° South 400 460 16,100 -1,750 Descending San Juan Center
Wed 11:27:04 PM 19.1667 -66.4333 163° South 390 449 14,300 -1,736 Descending San Juan Center
Wed 11:28:05 PM 19.0667 -66.4000 163° South 360 414 12,600 -1,488 Descending San Juan Center
Wed 11:29:05 PM 18.9833 -66.3667 159° South 320 368 11,300 -1,300 Descending San Juan Center
Wed 11:30:05 PM 18.9000 -66.3500 169° South 290 334 10,000 -1,300 Descending San Juan Center
Wed 11:31:05 PM 18.8167 -66.3167 159° South 290 334 8,700 -1,300 Descending San Juan Center
Wed 11:32:05 PM 18.7333 -66.3000 169° South 290 334 7,400 -1,300 Descending San Juan Center
Wed 11:33:05 PM 18.6667 -66.3000 180° South 280 322 6,100 -1,190 Descending San Juan Center
Wed 11:34:06 PM 18.5833 -66.2667 159° South 270 311 5,000 -1,091 Descending San Juan Center
Wed 11:35:06 PM 18.5333 -66.2333 148° Southeast 260 299 3,900 -1,150 Descending San Juan Center
Wed 11:36:06 PM 18.4500 -66.2000 159° South 260 299 2,700 -950 Descending San Juan Center
Wed 11:37:06 PM 18.4333 -66.1500 109° East 210 242 2,000 -450 Descending San Juan Center
Wed 11:38:06 PM 18.4333 -66.1000 90° East 150 173 1,800 -450 Descending San Juan Center
Wed 11:39:06 PM 18.4333 -66.0667 90° East 130 150 1,100 -650 Descending San Juan Center
Wed 11:40:06 PM 18.4333 -66.0333 90° East 130 150 500 -600 Descending San Juan Center

Login

Don't have an account? Register now (free) for customized features, flight alerts, and more!